createdAt,value
2017-10-10T00:02:13.140Z,35.13
2017-10-10T00:04:41.502Z,37.70
2017-10-10T00:07:09.868Z,32.77
2017-10-10T00:09:38.414Z,38.80
2017-10-10T00:12:07.598Z,36.30
2017-10-10T00:14:35.943Z,32.73
2017-10-10T00:17:04.323Z,27.67
2017-10-10T00:19:32.690Z,49.33
2017-10-10T00:22:02.190Z,32.50
2017-10-10T00:24:30.811Z,36.00
2017-10-10T00:26:59.959Z,40.67
2017-10-10T00:29:28.320Z,28.90
2017-10-10T00:31:57.641Z,39.23
2017-10-10T00:34:26.005Z,40.53
2017-10-10T00:36:54.582Z,34.27
2017-10-10T00:39:22.975Z,33.07
2017-10-10T00:41:51.334Z,35.50
2017-10-10T00:44:21.370Z,31.80
2017-10-10T00:46:49.743Z,38.40
2017-10-10T00:49:18.078Z,43.43
2017-10-10T00:51:46.466Z,38.33
2017-10-10T00:54:15.247Z,37.90
2017-10-10T00:56:44.596Z,42.50
2017-10-10T00:59:12.967Z,44.53
2017-10-10T01:01:41.720Z,35.03
2017-10-10T01:04:10.159Z,39.60
2017-10-10T01:06:38.535Z,39.50
2017-10-10T01:09:07.729Z,40.43
2017-10-10T01:11:36.087Z,37.63
2017-10-10T01:14:04.449Z,42.87
2017-10-10T01:16:34.500Z,41.70
2017-10-10T01:19:03.452Z,46.00
2017-10-10T01:21:32.820Z,65.37
2017-10-10T01:24:01.822Z,46.47
2017-10-10T01:26:30.687Z,38.50
2017-10-10T01:29:01.035Z,41.77
2017-10-10T01:31:30.066Z,44.17
2017-10-10T01:33:58.406Z,45.10
2017-10-10T01:36:26.776Z,48.13
2017-10-10T01:38:55.314Z,48.07
2017-10-10T01:41:24.460Z,44.90
2017-10-10T01:43:54.145Z,46.60
2017-10-10T01:46:23.337Z,43.03
2017-10-10T01:48:51.689Z,41.13
2017-10-10T01:51:20.066Z,45.27
2017-10-10T01:53:49.200Z,52.73
2017-10-10T01:56:19.606Z,41.53
2017-10-10T01:58:47.979Z,47.00
2017-10-10T02:01:17.204Z,41.20
2017-10-10T02:03:45.555Z,41.50
2017-10-10T02:06:16.376Z,42.33
2017-10-10T02:08:44.746Z,39.10
2017-10-10T02:11:13.102Z,37.17
2017-10-10T02:13:41.662Z,45.70
2017-10-10T02:16:11.018Z,42.63
2017-10-10T02:18:40.174Z,36.83
2017-10-10T02:21:10.603Z,36.83
2017-10-10T02:23:39.658Z,36.27
2017-10-10T02:26:09.816Z,33.10
2017-10-10T02:28:38.168Z,31.77
2017-10-10T02:31:06.544Z,27.70
2017-10-10T02:33:35.610Z,23.23
2017-10-10T02:36:04.879Z,26.20
2017-10-10T02:38:34.137Z,25.20
2017-10-10T02:41:03.761Z,25.37
2017-10-10T02:43:32.803Z,22.23
2017-10-10T02:46:01.257Z,20.90
2017-10-10T02:48:30.237Z,25.97
2017-10-10T02:50:59.284Z,34.80
2017-10-10T02:53:28.600Z,16.27
2017-10-10T02:55:57.163Z,21.53
2017-10-10T02:58:26.450Z,22.47
2017-10-10T03:00:54.811Z,30.73
2017-10-10T03:03:23.186Z,26.13
2017-10-10T03:05:51.638Z,29.07
2017-10-10T03:08:22.618Z,22.80
2017-10-10T03:10:50.999Z,30.37
2017-10-10T03:13:19.357Z,23.47
2017-10-10T03:15:47.721Z,25.90
2017-10-10T03:18:16.289Z,27.37
2017-10-10T03:20:46.164Z,21.53
2017-10-10T03:23:14.531Z,20.07
2017-10-10T03:25:43.154Z,31.03
2017-10-10T03:28:11.508Z,27.50
2017-10-10T03:30:42.436Z,31.50
2017-10-10T03:33:11.420Z,26.30
2017-10-10T03:35:39.802Z,35.30
2017-10-10T03:38:08.881Z,37.37
2017-10-10T03:40:37.256Z,42.47
2017-10-10T03:43:06.795Z,51.57
2017-10-10T03:45:36.085Z,54.10
2017-10-10T03:48:04.785Z,61.17
2017-10-10T03:50:33.127Z,56.93
2017-10-10T03:53:03.270Z,58.73
2017-10-10T03:55:32.577Z,58.27
2017-10-10T03:58:01.494Z,64.17
2017-10-10T04:00:30.583Z,54.40
2017-10-10T04:02:58.941Z,67.43
2017-10-10T04:05:27.289Z,66.37
2017-10-10T04:07:56.683Z,71.23
2017-10-10T04:10:26.326Z,66.27
2017-10-10T04:12:55.944Z,83.70
2017-10-10T04:15:25.314Z,72.77
2017-10-10T04:17:55.375Z,74.87
2017-10-10T04:20:24.375Z,64.47
2017-10-10T04:22:53.237Z,69.67
2017-10-10T04:25:22.494Z,69.83
2017-10-10T04:27:52.279Z,75.60
2017-10-10T04:30:20.642Z,75.20
2017-10-10T04:32:49.004Z,74.73
2017-10-10T04:35:17.382Z,70.33
2017-10-10T04:37:46.573Z,78.50
2017-10-10T04:40:15.146Z,85.60
2017-10-10T04:42:44.326Z,78.37
2017-10-10T04:45:12.902Z,76.77
2017-10-10T04:47:43.196Z,84.97
2017-10-10T04:50:12.246Z,76.43
2017-10-10T04:52:41.219Z,74.87
2017-10-10T04:55:10.314Z,90.43
2017-10-10T04:57:39.436Z,82.20
2017-10-10T05:00:09.219Z,79.37
2017-10-10T05:02:37.578Z,86.60
2017-10-10T05:05:07.635Z,77.37
2017-10-10T05:07:36.768Z,94.87
2017-10-10T05:10:05.131Z,83.07
2017-10-10T05:12:33.945Z,81.93
2017-10-10T05:15:03.243Z,74.37
2017-10-10T05:17:32.542Z,79.60
2017-10-10T05:20:01.914Z,76.97
2017-10-10T05:22:30.326Z,78.27
2017-10-10T05:24:58.695Z,81.27
2017-10-10T05:27:27.263Z,82.10
2017-10-10T05:29:56.464Z,81.03
2017-10-10T05:32:24.834Z,81.43
2017-10-10T05:34:53.197Z,81.80
2017-10-10T05:37:22.474Z,81.17
2017-10-10T05:39:50.816Z,87.23
2017-10-10T05:42:20.737Z,86.70
2017-10-10T05:44:49.735Z,80.83
2017-10-10T05:47:19.750Z,81.17
2017-10-10T05:49:48.107Z,89.87
2017-10-10T05:52:16.703Z,92.53
2017-10-10T05:54:45.067Z,84.10
2017-10-10T05:57:14.952Z,84.80
2017-10-10T05:59:43.375Z,90.10
2017-10-10T06:02:11.747Z,92.67
2017-10-10T06:04:41.232Z,86.57
2017-10-10T06:07:10.569Z,97.90
2017-10-10T06:09:40.446Z,92.30
2017-10-10T06:12:09.612Z,102.67
2017-10-10T06:14:38.850Z,99.77
2017-10-10T06:17:07.216Z,97.10
2017-10-10T06:19:36.713Z,98.53
2017-10-10T06:22:07.179Z,96.73
2017-10-10T06:24:36.229Z,98.83
2017-10-10T06:27:05.829Z,103.23
2017-10-10T06:29:34.548Z,108.90
2017-10-10T06:32:02.973Z,109.43
2017-10-10T06:34:32.171Z,119.47
2017-10-10T06:37:00.556Z,105.80
2017-10-10T06:39:29.943Z,104.50
2017-10-10T06:41:58.297Z,121.40
2017-10-10T06:44:26.675Z,115.60
2017-10-10T06:46:56.810Z,118.20
2017-10-10T06:49:25.174Z,120.03
2017-10-10T06:51:54.986Z,117.33
2017-10-10T06:54:23.567Z,130.37
2017-10-10T06:56:51.993Z,119.63
2017-10-10T06:59:20.647Z,129.53
2017-10-10T07:01:49.000Z,125.50
2017-10-10T07:04:18.165Z,127.80
2017-10-10T07:06:47.065Z,139.73
2017-10-10T07:09:16.237Z,144.27
2017-10-10T07:11:44.621Z,124.97
2017-10-10T07:14:13.193Z,111.67
2017-10-10T07:16:41.569Z,120.87
2017-10-10T07:19:09.953Z,113.63
2017-10-10T07:21:38.337Z,116.93
2017-10-10T07:24:07.402Z,119.40
2017-10-10T07:26:36.000Z,124.43
2017-10-10T07:29:04.363Z,116.37
2017-10-10T07:31:33.743Z,119.23
2017-10-10T07:34:02.091Z,123.93
2017-10-10T07:36:30.541Z,114.53
2017-10-10T07:38:59.662Z,113.23
2017-10-10T07:41:28.013Z,103.50
2017-10-10T07:43:56.444Z,104.43
2017-10-10T07:46:24.828Z,111.53
2017-10-10T07:48:53.236Z,98.87
2017-10-10T07:51:21.626Z,116.47
2017-10-10T07:53:51.677Z,136.60
2017-10-10T07:56:20.730Z,110.00
2017-10-10T07:58:49.148Z,99.13
2017-10-10T08:01:18.106Z,100.33
2017-10-10T08:03:46.455Z,102.67
2017-10-10T08:06:16.374Z,104.67
2017-10-10T08:08:45.512Z,92.50
2017-10-10T08:11:14.755Z,97.43
2017-10-10T08:13:43.118Z,96.80
2017-10-10T08:16:12.453Z,96.67
2017-10-10T08:18:40.793Z,93.90
2017-10-10T08:21:09.358Z,96.43
2017-10-10T08:23:38.977Z,92.67
2017-10-10T08:26:08.315Z,93.57
2017-10-10T08:28:38.077Z,85.43
2017-10-10T08:31:08.525Z,97.83
2017-10-10T08:33:36.867Z,93.27
2017-10-10T08:36:06.057Z,90.87
2017-10-10T08:38:34.418Z,84.23
2017-10-10T08:41:03.927Z,83.60
2017-10-10T08:43:32.444Z,87.53
2017-10-10T08:46:01.816Z,85.80
2017-10-10T08:48:30.240Z,80.77
2017-10-10T08:50:58.606Z,70.10
2017-10-10T08:53:26.952Z,80.57
2017-10-10T08:55:57.001Z,88.97
2017-10-10T08:58:26.300Z,75.33
2017-10-10T09:00:55.414Z,84.33
2017-10-10T09:03:23.771Z,87.33
2017-10-10T09:05:53.285Z,78.67
2017-10-10T09:08:22.346Z,81.10
2017-10-10T09:10:51.822Z,71.23
2017-10-10T09:13:20.206Z,90.60
2017-10-10T09:15:48.574Z,83.43
2017-10-10T09:18:17.488Z,88.33
2017-10-10T09:20:45.859Z,78.00
2017-10-10T09:23:15.734Z,80.87
2017-10-10T09:25:44.094Z,74.53
2017-10-10T09:28:12.595Z,70.07
2017-10-10T09:30:41.173Z,76.03
2017-10-10T09:33:10.244Z,77.30
2017-10-10T09:35:39.368Z,73.73
2017-10-10T09:38:07.746Z,76.97
2017-10-10T09:40:36.206Z,79.43
2017-10-10T09:43:05.903Z,82.13
2017-10-10T09:45:34.276Z,78.80
2017-10-10T09:48:02.634Z,70.23
2017-10-10T09:50:31.119Z,73.87
2017-10-10T09:53:00.392Z,66.43
2017-10-10T09:55:28.749Z,75.70
2017-10-10T09:57:58.003Z,71.40
2017-10-10T10:00:26.888Z,74.57
2017-10-10T10:02:55.627Z,67.17
2017-10-10T10:05:24.003Z,63.40
2017-10-10T10:07:53.129Z,60.10
2017-10-10T10:10:21.667Z,68.43
2017-10-10T10:12:50.243Z,60.20
2017-10-10T10:15:18.593Z,67.73
2017-10-10T10:17:47.059Z,52.93
2017-10-10T10:20:15.427Z,65.40
2017-10-10T10:22:43.795Z,69.33
2017-10-10T10:25:12.993Z,44.33
2017-10-10T10:27:42.919Z,51.17
2017-10-10T10:30:11.286Z,50.37
2017-10-10T10:32:39.638Z,58.23
2017-10-10T10:35:09.439Z,54.63
2017-10-10T10:37:37.794Z,66.33
2017-10-10T10:40:06.152Z,62.33
2017-10-10T10:42:36.626Z,44.80
2017-10-10T10:45:05.935Z,55.67
2017-10-10T10:47:34.282Z,60.13
2017-10-10T10:50:02.654Z,59.10
2017-10-10T10:52:30.994Z,51.97
2017-10-10T10:54:59.341Z,60.10
2017-10-10T10:57:28.203Z,60.93
2017-10-10T10:59:56.918Z,55.90
2017-10-10T11:02:26.100Z,66.50
2017-10-10T11:04:56.194Z,66.13
2017-10-10T11:07:25.307Z,54.23
2017-10-10T11:09:53.665Z,63.03
2017-10-10T11:12:23.537Z,61.10
2017-10-10T11:14:51.927Z,62.17
2017-10-10T11:17:22.006Z,60.50
2017-10-10T11:19:50.456Z,75.87
2017-10-10T11:22:19.515Z,72.13
2017-10-10T11:24:48.698Z,71.33
2017-10-10T11:27:17.889Z,68.20
2017-10-10T11:29:46.318Z,70.87
2017-10-10T11:32:15.438Z,74.40
2017-10-10T11:34:44.683Z,75.43
2017-10-10T11:37:13.117Z,73.87
2017-10-10T11:39:41.451Z,66.33
2017-10-10T11:42:10.679Z,75.83
2017-10-10T11:44:39.293Z,67.23
2017-10-10T11:47:07.679Z,66.00
2017-10-10T11:49:36.051Z,61.17
2017-10-10T11:52:04.416Z,65.57
2017-10-10T11:54:32.808Z,62.43
2017-10-10T11:57:01.514Z,62.07
2017-10-10T11:59:29.866Z,56.00
2017-10-10T12:01:58.217Z,56.47
2017-10-10T12:04:27.689Z,65.40
2017-10-10T12:06:56.791Z,61.60
2017-10-10T12:09:25.158Z,50.63
2017-10-10T12:11:53.541Z,51.17
2017-10-10T12:14:21.886Z,37.87
2017-10-10T12:16:50.244Z,41.73
2017-10-10T12:19:19.080Z,35.50
2017-10-10T12:21:47.429Z,32.03
2017-10-10T12:24:17.564Z,38.73
2017-10-10T12:26:46.111Z,28.70
2017-10-10T12:29:14.509Z,30.77
2017-10-10T12:31:45.772Z,28.60
2017-10-10T12:34:14.143Z,31.20
2017-10-10T12:36:42.538Z,25.43
2017-10-10T12:39:11.574Z,31.20
2017-10-10T12:41:41.503Z,26.23
2017-10-10T12:44:10.673Z,21.97
2017-10-10T12:46:40.575Z,28.10
2017-10-10T12:49:10.050Z,35.00
2017-10-10T12:51:38.406Z,17.40
2017-10-10T12:54:07.608Z,15.83
2017-10-10T12:56:36.626Z,17.93
2017-10-10T12:59:04.981Z,21.63
2017-10-10T13:01:33.347Z,16.23
2017-10-10T13:04:02.124Z,20.90
2017-10-10T13:06:31.567Z,18.73
2017-10-10T13:08:59.918Z,13.67
2017-10-10T13:11:29.957Z,19.43
2017-10-10T13:13:58.310Z,16.23
2017-10-10T13:16:28.357Z,18.57
2017-10-10T13:18:56.767Z,14.90
2017-10-10T13:21:25.872Z,12.93
2017-10-10T13:23:54.270Z,11.73
2017-10-10T13:26:24.297Z,16.50
2017-10-10T13:28:52.868Z,12.10
2017-10-10T13:31:22.545Z,11.57
2017-10-10T13:33:51.350Z,12.83
2017-10-10T13:36:21.513Z,11.63
2017-10-10T13:38:51.587Z,15.90
2017-10-10T13:41:19.974Z,14.23
2017-10-10T13:43:48.325Z,12.20
2017-10-10T13:46:16.672Z,12.80
2017-10-10T13:48:45.589Z,13.77
2017-10-10T13:51:13.946Z,13.80
2017-10-10T13:53:43.088Z,13.03
2017-10-10T13:56:12.062Z,16.97
2017-10-10T13:58:40.998Z,12.83
2017-10-10T14:01:10.430Z,13.10
2017-10-10T14:03:39.308Z,23.57
2017-10-10T14:06:09.386Z,32.83
2017-10-10T14:08:37.756Z,13.83
2017-10-10T14:11:06.851Z,14.97
2017-10-10T14:13:35.211Z,14.33
2017-10-10T14:16:03.592Z,19.77
2017-10-10T14:18:32.458Z,15.87
2017-10-10T14:21:01.138Z,20.53
2017-10-10T14:23:29.592Z,21.10
2017-10-10T14:25:58.151Z,20.93
2017-10-10T14:28:26.521Z,22.37
2017-10-10T14:30:55.446Z,21.33
2017-10-10T14:33:23.826Z,28.70
2017-10-10T14:35:52.700Z,32.43
2017-10-10T14:38:21.108Z,30.10
2017-10-10T14:40:50.818Z,36.83
2017-10-10T14:43:20.075Z,32.57
2017-10-10T14:45:48.740Z,27.27
2017-10-10T14:48:18.118Z,27.93
2017-10-10T14:50:46.653Z,30.23
2017-10-10T14:53:15.052Z,30.53
2017-10-10T14:55:43.408Z,27.67
2017-10-10T14:58:11.793Z,27.10
2017-10-10T15:00:40.197Z,41.40
2017-10-10T15:03:08.894Z,28.67
2017-10-10T15:05:38.030Z,34.23
2017-10-10T15:08:06.407Z,28.10
2017-10-10T15:10:34.824Z,28.70
2017-10-10T15:13:03.188Z,26.20
2017-10-10T15:15:31.531Z,31.43
2017-10-10T15:18:00.685Z,31.70
2017-10-10T15:20:29.767Z,30.13
2017-10-10T15:22:58.151Z,27.47
2017-10-10T15:25:27.380Z,25.67
2017-10-10T15:27:56.473Z,40.43
2017-10-10T15:30:25.622Z,25.47
2017-10-10T15:32:53.993Z,31.53
2017-10-10T15:35:22.989Z,31.37
2017-10-10T15:37:52.284Z,29.00
2017-10-10T15:40:21.602Z,33.07
2017-10-10T15:42:50.624Z,26.57
2017-10-10T15:45:19.212Z,30.53
2017-10-10T15:47:47.979Z,27.70
2017-10-10T15:50:16.310Z,30.80
2017-10-10T15:52:44.662Z,29.57
2017-10-10T15:55:13.832Z,28.37
2017-10-10T15:57:43.428Z,29.80
2017-10-10T16:00:11.781Z,31.23
2017-10-10T16:02:40.729Z,30.00
2017-10-10T16:05:09.117Z,27.20
2017-10-10T16:07:37.504Z,33.30
2017-10-10T16:10:06.880Z,30.93
2017-10-10T16:12:35.263Z,23.27
2017-10-10T16:15:05.976Z,39.03
2017-10-10T16:17:34.469Z,25.83
2017-10-10T16:20:02.874Z,28.80
2017-10-10T16:22:31.547Z,33.90
2017-10-10T16:25:01.030Z,34.13
2017-10-10T16:27:30.091Z,31.50
2017-10-10T16:29:59.245Z,32.77
2017-10-10T16:32:28.092Z,38.77
2017-10-10T16:34:57.222Z,33.23
2017-10-10T16:37:26.743Z,31.23
2017-10-10T16:39:55.837Z,28.20
2017-10-10T16:42:24.804Z,40.73
2017-10-10T16:44:53.864Z,43.30
2017-10-10T16:47:22.262Z,35.07
2017-10-10T16:49:50.668Z,34.73
2017-10-10T16:52:19.097Z,37.20
2017-10-10T16:54:47.644Z,32.60
2017-10-10T16:57:16.336Z,32.97
2017-10-10T16:59:45.296Z,37.93
2017-10-10T17:02:14.450Z,37.80
2017-10-10T17:04:42.816Z,43.83
2017-10-10T17:07:11.992Z,39.47
2017-10-10T17:09:40.399Z,42.33
2017-10-10T17:12:08.776Z,39.00
2017-10-10T17:14:37.162Z,51.67
2017-10-10T17:17:07.550Z,43.73
2017-10-10T17:19:36.718Z,46.23
2017-10-10T17:22:06.184Z,38.20
2017-10-10T17:24:35.484Z,40.20
2017-10-10T17:27:03.870Z,43.30
2017-10-10T17:29:32.252Z,44.47
2017-10-10T17:32:00.627Z,39.57
2017-10-10T17:34:29.740Z,40.30
2017-10-10T17:36:58.069Z,43.33
2017-10-10T17:39:27.882Z,40.57
2017-10-10T17:41:56.986Z,39.67
2017-10-10T17:44:25.972Z,42.37
2017-10-10T17:46:55.898Z,39.30
2017-10-10T17:49:25.775Z,52.40
2017-10-10T17:51:55.461Z,41.57
2017-10-10T17:54:24.598Z,40.17
2017-10-10T17:56:53.505Z,39.30
2017-10-10T17:59:22.893Z,42.00
2017-10-10T18:01:51.266Z,41.23
2017-10-10T18:04:20.970Z,44.97
2017-10-10T18:06:49.380Z,57.20
2017-10-10T18:09:19.295Z,47.30
2017-10-10T18:11:49.485Z,42.40
2017-10-10T18:14:18.845Z,43.60
2017-10-10T18:16:48.798Z,48.63
2017-10-10T18:19:17.934Z,44.83
2017-10-10T18:21:46.980Z,48.13
2017-10-10T18:24:17.041Z,55.73
2017-10-10T18:26:45.628Z,48.87
2017-10-10T18:29:14.961Z,51.97
2017-10-10T18:31:44.114Z,45.20
2017-10-10T18:34:12.536Z,50.07
2017-10-10T18:36:43.081Z,49.60
2017-10-10T18:39:11.448Z,46.67
2017-10-10T18:41:40.587Z,47.27
2017-10-10T18:44:09.264Z,57.27
2017-10-10T18:46:38.498Z,46.37
2017-10-10T18:49:06.869Z,49.03
2017-10-10T18:51:35.844Z,50.17
2017-10-10T18:54:07.524Z,46.13
2017-10-10T18:56:36.862Z,55.20
2017-10-10T18:59:07.838Z,47.37
2017-10-10T19:01:37.919Z,49.30
2017-10-10T19:04:07.087Z,46.33
2017-10-10T19:06:35.798Z,42.70
2017-10-10T19:09:04.194Z,53.20
2017-10-10T19:11:33.224Z,52.33
2017-10-10T19:14:01.847Z,45.03
2017-10-10T19:16:31.600Z,42.33
2017-10-10T19:19:01.560Z,41.33
2017-10-10T19:21:29.953Z,42.23
2017-10-10T19:23:58.401Z,44.93
2017-10-10T19:26:26.793Z,48.90
2017-10-10T19:28:55.418Z,38.23
2017-10-10T19:31:24.195Z,43.97
2017-10-10T19:33:52.564Z,47.93
2017-10-10T19:36:22.034Z,45.90
2017-10-10T19:38:50.442Z,40.80
2017-10-10T19:41:18.965Z,37.57
2017-10-10T19:43:48.955Z,42.37
2017-10-10T19:46:17.623Z,48.30
2017-10-10T19:48:46.028Z,38.47
2017-10-10T19:51:16.057Z,43.70
2017-10-10T19:53:44.480Z,47.37
2017-10-10T19:56:13.879Z,38.17
2017-10-10T19:58:42.243Z,41.93
2017-10-10T20:01:12.810Z,40.50
2017-10-10T20:03:42.216Z,44.87
2017-10-10T20:06:10.959Z,41.93
2017-10-10T20:08:41.121Z,44.27
2017-10-10T20:11:09.561Z,43.60
2017-10-10T20:13:38.802Z,33.53
2017-10-10T20:16:07.294Z,38.47
2017-10-10T20:18:35.998Z,43.53
2017-10-10T20:21:07.099Z,39.30
2017-10-10T20:23:35.956Z,40.13
2017-10-10T20:26:04.318Z,38.70
2017-10-10T20:28:34.455Z,46.13
2017-10-10T20:31:04.065Z,38.10
2017-10-10T20:33:34.006Z,44.57
2017-10-10T20:36:02.371Z,41.67
2017-10-10T20:38:30.783Z,43.73
2017-10-10T20:41:01.230Z,43.40
2017-10-10T20:43:29.594Z,40.53
2017-10-10T20:45:58.579Z,44.73
2017-10-10T20:48:26.951Z,50.60
2017-10-10T20:50:55.333Z,43.53
2017-10-10T20:53:24.897Z,40.17
2017-10-10T20:55:53.623Z,39.40
2017-10-10T20:58:22.340Z,39.93
2017-10-10T21:00:50.726Z,46.90
2017-10-10T21:03:20.113Z,43.50
2017-10-10T21:05:49.197Z,42.97
2017-10-10T21:08:17.820Z,44.17
2017-10-10T21:10:46.208Z,45.83
2017-10-10T21:13:15.153Z,48.07
2017-10-10T21:15:43.723Z,43.47
2017-10-10T21:18:12.473Z,44.23
2017-10-10T21:20:40.830Z,40.43
2017-10-10T21:23:09.783Z,45.10
2017-10-10T21:25:38.134Z,46.70
2017-10-10T21:28:06.922Z,42.80
2017-10-10T21:30:35.971Z,43.27
2017-10-10T21:33:04.393Z,43.93
2017-10-10T21:35:33.556Z,43.97
2017-10-10T21:38:02.005Z,37.53
2017-10-10T21:40:30.377Z,42.80
2017-10-10T21:43:00.492Z,40.57
2017-10-10T21:45:32.158Z,41.63
2017-10-10T21:48:01.259Z,36.93
2017-10-10T21:50:30.611Z,39.47
2017-10-10T21:52:59.439Z,39.33
2017-10-10T21:55:30.254Z,40.73
2017-10-10T21:57:59.389Z,47.07
2017-10-10T22:00:29.736Z,38.43
2017-10-10T22:02:58.107Z,39.97
2017-10-10T22:05:27.260Z,36.83
2017-10-10T22:07:56.076Z,36.73
2017-10-10T22:10:24.441Z,50.27
2017-10-10T22:12:53.710Z,34.57
2017-10-10T22:15:22.079Z,35.60
2017-10-10T22:17:50.451Z,36.13
2017-10-10T22:20:18.797Z,35.90
2017-10-10T22:22:47.394Z,43.73
2017-10-10T22:25:16.306Z,40.80
2017-10-10T22:27:44.688Z,38.40
2017-10-10T22:30:13.063Z,48.73
2017-10-10T22:32:41.417Z,49.40
2017-10-10T22:35:09.750Z,48.63
2017-10-10T22:37:38.125Z,46.97
2017-10-10T22:40:06.476Z,43.20
2017-10-10T22:42:36.979Z,46.83
2017-10-10T22:45:05.623Z,52.30
2017-10-10T22:47:34.209Z,57.90
2017-10-10T22:50:02.631Z,50.67
2017-10-10T22:52:31.008Z,50.90
2017-10-10T22:54:59.682Z,52.23
2017-10-10T22:57:28.737Z,44.60
2017-10-10T22:59:57.465Z,49.40
2017-10-10T23:02:26.367Z,51.63
2017-10-10T23:04:55.744Z,52.50
2017-10-10T23:07:25.055Z,51.43
2017-10-10T23:09:54.838Z,48.93
2017-10-10T23:12:23.190Z,51.47
2017-10-10T23:14:51.669Z,55.43
2017-10-10T23:17:20.587Z,60.60
2017-10-10T23:19:49.816Z,57.23
2017-10-10T23:22:19.007Z,46.10
2017-10-10T23:24:48.156Z,45.13
2017-10-10T23:27:17.626Z,42.43
2017-10-10T23:29:47.655Z,46.87
2017-10-10T23:32:17.694Z,41.33
2017-10-10T23:34:46.371Z,43.50
2017-10-10T23:37:14.769Z,45.10
2017-10-10T23:39:43.674Z,53.83
2017-10-10T23:42:12.051Z,48.63
2017-10-10T23:44:40.426Z,45.63
2017-10-10T23:47:08.807Z,48.90
2017-10-10T23:49:37.179Z,37.10
2017-10-10T23:52:07.703Z,48.47
2017-10-10T23:54:36.817Z,50.27
2017-10-10T23:57:05.189Z,45.30
2017-10-10T23:59:33.584Z,46.10
